TKJ5DA UGTB-LTFJ
Flight info
| Callsign | TKJ5DA |
|---|---|
| Flight time | 2h 5m |
| Altitude | 34000 |
| Route | ZAGOT DCT NOLGA UN61 TBN UW71 CRM DCT DEREL UT79 NAMAN |
| Aircraft | A21N/M-SDE3FGHIRWY/LB1 |
Departure
| Time | 2026-05-05 22:45 |
|---|---|
| Airport | Tbilisi International Airport (UGTB) |
Arrival
| Time | 2026-05-06 00:50 |
|---|---|
| Airport | Istanbul Sabiha Gökçen International Airport (LTFJ) |
| Time | Latitude | Longitude | Altitude | Speed | Heading |
|---|---|---|---|---|---|
| 2026-05-05 22:32 | 41.66855 | 44.96382 | 1573 ft | 0 kts | 43° |
| 2026-05-05 22:37 | 41.66852 | 44.96379 | 1573 ft | 1 kts | 41° |
| 2026-05-05 22:38 | 41.66840 | 44.96367 | 1572 ft | 2 kts | 34° |
| 2026-05-05 22:38 | 41.66828 | 44.96355 | 1571 ft | 2 kts | 39° |
| 2026-05-05 22:38 | 41.66817 | 44.96343 | 1570 ft | 2 kts | 37° |
| 2026-05-05 22:38 | 41.66805 | 44.96329 | 1569 ft | 2 kts | 60° |
| 2026-05-05 22:39 | 41.66800 | 44.96309 | 1568 ft | 2 kts | 95° |
| 2026-05-05 22:39 | 41.66805 | 44.96290 | 1567 ft | 1 kts | 128° |
| 2026-05-05 22:39 | 41.66810 | 44.96283 | 1567 ft | 1 kts | 138° |
| 2026-05-05 22:39 | 41.66812 | 44.96280 | 1567 ft | 0 kts | 134° |
| 2026-05-05 22:41 | 41.66808 | 44.96286 | 1567 ft | 3 kts | 131° |
| 2026-05-05 22:42 | 41.66773 | 44.96341 | 1567 ft | 12 kts | 131° |
| 2026-05-05 22:42 | 41.66700 | 44.96425 | 1565 ft | 15 kts | 170° |
| 2026-05-05 22:42 | 41.66579 | 44.96393 | 1556 ft | 20 kts | 193° |
| 2026-05-05 22:42 | 41.66420 | 44.96340 | 1546 ft | 25 kts | 194° |
| 2026-05-05 22:43 | 41.66240 | 44.96298 | 1535 ft | 28 kts | 175° |
| 2026-05-05 22:43 | 41.66071 | 44.96432 | 1526 ft | 29 kts | 136° |
| 2026-05-05 22:43 | 41.65951 | 44.96584 | 1515 ft | 17 kts | 141° |
| 2026-05-05 22:43 | 41.65849 | 44.96526 | 1509 ft | 19 kts | 262° |
| 2026-05-05 22:44 | 41.65910 | 44.96384 | 1515 ft | 20 kts | 316° |
| 2026-05-05 22:44 | 41.66188 | 44.96032 | 1527 ft | 91 kts | 316° |
| 2026-05-05 22:44 | 41.66814 | 44.95238 | 1543 ft | 154 kts | 317° |
| 2026-05-05 22:44 | 41.67622 | 44.94202 | 2017 ft | 167 kts | 316° |
| 2026-05-05 22:45 | 41.68462 | 44.93118 | 2695 ft | 172 kts | 317° |
| 2026-05-05 22:45 | 41.69347 | 44.92043 | 3420 ft | 176 kts | 319° |
| 2026-05-05 22:45 | 41.70276 | 44.90923 | 3966 ft | 190 kts | 319° |
| 2026-05-05 22:45 | 41.71294 | 44.89681 | 4506 ft | 207 kts | 319° |
| 2026-05-05 22:46 | 41.72395 | 44.88326 | 4969 ft | 222 kts | 319° |
| 2026-05-05 22:46 | 41.73579 | 44.86861 | 5263 ft | 240 kts | 319° |
| 2026-05-05 22:46 | 41.74844 | 44.85289 | 5612 ft | 257 kts | 319° |
| 2026-05-05 22:46 | 41.76189 | 44.83612 | 6026 ft | 271 kts | 319° |
| 2026-05-05 22:47 | 41.77573 | 44.81874 | 6660 ft | 276 kts | 316° |
| 2026-05-05 22:47 | 41.78636 | 44.79751 | 7260 ft | 283 kts | 288° |
| 2026-05-05 22:47 | 41.78801 | 44.77137 | 7939 ft | 285 kts | 267° |
| 2026-05-05 22:47 | 41.78702 | 44.74475 | 8551 ft | 290 kts | 267° |
| 2026-05-05 22:48 | 41.78624 | 44.71764 | 9174 ft | 293 kts | 268° |
| 2026-05-05 22:48 | 41.78576 | 44.69037 | 9783 ft | 297 kts | 268° |
| 2026-05-05 22:48 | 41.78551 | 44.66288 | 10366 ft | 301 kts | 269° |
| 2026-05-05 22:48 | 41.78538 | 44.63425 | 10674 ft | 316 kts | 269° |
| 2026-05-05 22:49 | 41.78534 | 44.60406 | 11069 ft | 326 kts | 269° |
| 2026-05-05 22:49 | 41.78534 | 44.57407 | 11678 ft | 328 kts | 269° |
| 2026-05-05 22:49 | 41.78537 | 44.54343 | 12320 ft | 329 kts | 268° |
| 2026-05-05 22:49 | 41.78538 | 44.51260 | 12936 ft | 330 kts | 269° |
| 2026-05-05 22:50 | 41.78539 | 44.48215 | 13521 ft | 332 kts | 268° |
| 2026-05-05 22:50 | 41.78540 | 44.45134 | 14091 ft | 333 kts | 268° |
| 2026-05-05 22:50 | 41.78538 | 44.42027 | 14623 ft | 336 kts | 268° |
| 2026-05-05 22:50 | 41.78536 | 44.38911 | 15117 ft | 339 kts | 268° |
| 2026-05-05 22:51 | 41.78534 | 44.35718 | 15613 ft | 342 kts | 269° |
| 2026-05-05 22:51 | 41.78531 | 44.32510 | 16103 ft | 345 kts | 268° |
| 2026-05-05 22:51 | 41.78527 | 44.29317 | 16576 ft | 348 kts | 268° |
| 2026-05-05 22:51 | 41.78522 | 44.26089 | 17034 ft | 351 kts | 268° |
| 2026-05-05 22:52 | 41.78516 | 44.22797 | 17483 ft | 355 kts | 268° |
| 2026-05-05 22:52 | 41.78511 | 44.19513 | 17922 ft | 358 kts | 268° |
| 2026-05-05 22:52 | 41.78473 | 44.16162 | 18359 ft | 360 kts | 264° |
| 2026-05-05 22:52 | 41.78105 | 44.12861 | 18787 ft | 362 kts | 255° |
| 2026-05-05 22:53 | 41.77335 | 44.09638 | 19248 ft | 362 kts | 247° |
| 2026-05-05 22:53 | 41.76411 | 44.06542 | 19685 ft | 363 kts | 245° |
| 2026-05-05 22:53 | 41.75436 | 44.03380 | 20131 ft | 365 kts | 245° |
| 2026-05-05 22:53 | 41.74478 | 44.00271 | 20573 ft | 366 kts | 245° |
| 2026-05-05 22:54 | 41.73509 | 43.97117 | 21010 ft | 368 kts | 245° |
| 2026-05-05 22:54 | 41.72535 | 43.93930 | 21434 ft | 370 kts | 245° |
| 2026-05-05 22:54 | 41.71561 | 43.90741 | 21851 ft | 372 kts | 245° |
| 2026-05-05 22:54 | 41.70576 | 43.87517 | 22241 ft | 374 kts | 245° |
| 2026-05-05 22:55 | 41.69596 | 43.84311 | 22602 ft | 376 kts | 245° |
| 2026-05-05 22:55 | 41.68608 | 43.81077 | 22988 ft | 378 kts | 244° |
| 2026-05-05 22:55 | 41.67604 | 43.77792 | 23368 ft | 380 kts | 245° |
| 2026-05-05 22:55 | 41.66609 | 43.74541 | 23726 ft | 382 kts | 244° |
| 2026-05-05 22:56 | 41.65589 | 43.71214 | 24072 ft | 384 kts | 244° |
| 2026-05-05 22:56 | 41.64582 | 43.67932 | 24440 ft | 385 kts | 244° |
| 2026-05-05 22:56 | 41.63567 | 43.64627 | 24814 ft | 386 kts | 244° |
| 2026-05-05 22:56 | 41.62558 | 43.61343 | 25179 ft | 387 kts | 244° |
| 2026-05-05 22:57 | 41.61531 | 43.58011 | 25515 ft | 388 kts | 244° |
| 2026-05-05 22:57 | 41.60496 | 43.54652 | 25853 ft | 389 kts | 244° |
| 2026-05-05 22:57 | 41.59466 | 43.51315 | 26181 ft | 390 kts | 244° |
| 2026-05-05 22:57 | 41.58444 | 43.48007 | 26519 ft | 391 kts | 244° |
| 2026-05-05 22:58 | 41.57400 | 43.44633 | 26823 ft | 392 kts | 244° |
| 2026-05-05 22:58 | 41.56356 | 43.41266 | 27095 ft | 394 kts | 244° |
| 2026-05-05 22:58 | 41.55302 | 43.37869 | 27375 ft | 396 kts | 244° |
| 2026-05-05 22:58 | 41.54254 | 43.34497 | 27646 ft | 397 kts | 243° |
| 2026-05-05 22:59 | 41.53199 | 43.31107 | 27945 ft | 398 kts | 243° |
| 2026-05-05 22:59 | 41.52125 | 43.27657 | 28232 ft | 399 kts | 243° |
| 2026-05-05 22:59 | 41.51066 | 43.24256 | 28555 ft | 399 kts | 243° |
| 2026-05-05 22:59 | 41.50011 | 43.20875 | 28846 ft | 400 kts | 243° |
| 2026-05-05 23:00 | 41.47853 | 43.13981 | 29347 ft | 403 kts | 243° |
| 2026-05-05 23:00 | 41.46781 | 43.10560 | 29618 ft | 404 kts | 243° |
| 2026-05-05 23:00 | 41.45692 | 43.07091 | 29875 ft | 405 kts | 243° |
| 2026-05-05 23:01 | 41.44623 | 43.03634 | 30106 ft | 407 kts | 245° |
| 2026-05-05 23:01 | 41.43661 | 43.00048 | 30348 ft | 410 kts | 248° |
| 2026-05-05 23:01 | 41.42853 | 42.96403 | 30598 ft | 412 kts | 251° |
| 2026-05-05 23:01 | 41.42193 | 42.92645 | 30811 ft | 416 kts | 254° |
| 2026-05-05 23:02 | 41.41690 | 42.88875 | 30955 ft | 420 kts | 256° |
| 2026-05-05 23:02 | 41.41219 | 42.85011 | 31146 ft | 421 kts | 257° |
| 2026-05-05 23:02 | 41.40755 | 42.81166 | 31330 ft | 423 kts | 257° |
| 2026-05-05 23:02 | 41.40289 | 42.77326 | 31498 ft | 425 kts | 257° |
| 2026-05-05 23:03 | 41.39810 | 42.73397 | 31634 ft | 426 kts | 257° |
| 2026-05-05 23:03 | 41.39333 | 42.69511 | 31767 ft | 428 kts | 257° |
| 2026-05-05 23:03 | 41.38854 | 42.65616 | 31898 ft | 430 kts | 257° |
| 2026-05-05 23:03 | 41.38368 | 42.61674 | 32031 ft | 432 kts | 257° |
| 2026-05-05 23:04 | 41.37879 | 42.57728 | 32170 ft | 433 kts | 257° |
| 2026-05-05 23:04 | 41.37384 | 42.53751 | 32270 ft | 436 kts | 257° |
| 2026-05-05 23:04 | 41.36894 | 42.49815 | 32410 ft | 437 kts | 257° |
| 2026-05-05 23:04 | 41.36392 | 42.45790 | 32562 ft | 438 kts | 257° |
| 2026-05-05 23:05 | 41.35895 | 42.41825 | 32694 ft | 439 kts | 257° |
| 2026-05-05 23:05 | 41.35394 | 42.37842 | 32829 ft | 440 kts | 257° |
| 2026-05-05 23:05 | 41.34885 | 42.33804 | 32966 ft | 441 kts | 257° |
| 2026-05-05 23:05 | 41.34376 | 42.29784 | 33106 ft | 442 kts | 257° |
| 2026-05-05 23:06 | 41.33869 | 42.25779 | 33239 ft | 443 kts | 257° |
| 2026-05-05 23:06 | 41.33360 | 42.21769 | 33381 ft | 444 kts | 257° |
| 2026-05-05 23:06 | 41.32842 | 42.17716 | 33519 ft | 444 kts | 257° |
| 2026-05-05 23:06 | 41.32328 | 42.13706 | 33661 ft | 445 kts | 257° |
| 2026-05-05 23:07 | 41.31804 | 42.09617 | 33820 ft | 445 kts | 257° |
| 2026-05-05 23:07 | 41.31289 | 42.05610 | 33952 ft | 446 kts | 257° |
| 2026-05-05 23:07 | 41.30238 | 41.97481 | 33979 ft | 447 kts | 257° |
| 2026-05-05 23:08 | 41.29171 | 41.89341 | 33981 ft | 448 kts | 257° |
| 2026-05-05 23:08 | 41.28092 | 41.81159 | 33989 ft | 448 kts | 257° |
| 2026-05-05 23:09 | 41.27013 | 41.73028 | 33993 ft | 448 kts | 257° |
| 2026-05-05 23:09 | 41.25922 | 41.64867 | 33992 ft | 449 kts | 257° |
| 2026-05-05 23:10 | 41.24833 | 41.56754 | 33987 ft | 449 kts | 257° |
| 2026-05-05 23:10 | 41.23735 | 41.48626 | 33975 ft | 449 kts | 257° |
| 2026-05-05 23:11 | 41.22627 | 41.40465 | 33973 ft | 450 kts | 257° |
| 2026-05-05 23:11 | 41.21514 | 41.32306 | 33989 ft | 449 kts | 257° |
| 2026-05-05 23:12 | 41.20394 | 41.24155 | 33995 ft | 450 kts | 257° |
| 2026-05-05 23:12 | 41.19268 | 41.15997 | 34006 ft | 450 kts | 257° |
| 2026-05-05 23:13 | 41.18138 | 41.07847 | 33999 ft | 450 kts | 257° |
| 2026-05-05 23:13 | 41.16993 | 40.99644 | 33996 ft | 451 kts | 257° |
| 2026-05-05 23:14 | 41.15854 | 40.91512 | 33993 ft | 451 kts | 257° |
| 2026-05-05 23:14 | 41.14703 | 40.83346 | 33996 ft | 450 kts | 257° |
| 2026-05-05 23:15 | 41.13542 | 40.75168 | 33999 ft | 450 kts | 257° |
| 2026-05-05 23:15 | 41.12390 | 40.67090 | 33995 ft | 450 kts | 257° |
| 2026-05-05 23:16 | 41.11219 | 40.58923 | 34001 ft | 452 kts | 257° |
| 2026-05-05 23:16 | 41.10043 | 40.50759 | 34000 ft | 452 kts | 257° |
| 2026-05-05 23:17 | 41.08861 | 40.42592 | 34006 ft | 452 kts | 257° |
| 2026-05-05 23:17 | 41.07671 | 40.34415 | 34008 ft | 452 kts | 257° |
| 2026-05-05 23:18 | 41.06480 | 40.26268 | 34015 ft | 452 kts | 257° |
| 2026-05-05 23:18 | 41.05285 | 40.18153 | 34022 ft | 452 kts | 257° |
| 2026-05-05 23:19 | 41.04074 | 40.09959 | 34025 ft | 451 kts | 257° |
| 2026-05-05 23:19 | 41.02871 | 40.01863 | 34029 ft | 451 kts | 257° |
| 2026-05-05 23:20 | 41.01654 | 39.93720 | 34034 ft | 452 kts | 257° |
| 2026-05-05 23:20 | 41.00611 | 39.85514 | 34031 ft | 453 kts | 262° |
| 2026-05-05 23:21 | 41.00223 | 39.77222 | 34031 ft | 455 kts | 268° |
| 2026-05-05 23:21 | 41.00538 | 39.68874 | 34040 ft | 456 kts | 275° |
| 2026-05-05 23:22 | 41.01322 | 39.60551 | 34036 ft | 456 kts | 276° |
| 2026-05-05 23:22 | 41.02125 | 39.52284 | 34034 ft | 456 kts | 276° |
| 2026-05-05 23:23 | 41.02916 | 39.43993 | 34027 ft | 457 kts | 276° |
| 2026-05-05 23:23 | 41.03701 | 39.35637 | 34025 ft | 457 kts | 276° |
| 2026-05-05 23:24 | 41.04470 | 39.27367 | 34021 ft | 456 kts | 275° |
| 2026-05-05 23:24 | 41.05241 | 39.19015 | 34020 ft | 455 kts | 275° |
| 2026-05-05 23:25 | 41.06000 | 39.10767 | 34023 ft | 455 kts | 275° |
| 2026-05-05 23:25 | 41.06771 | 39.02457 | 34024 ft | 455 kts | 275° |
| 2026-05-05 23:26 | 41.07534 | 38.94174 | 34020 ft | 456 kts | 275° |
| 2026-05-05 23:26 | 41.08295 | 38.85816 | 34027 ft | 456 kts | 275° |
| 2026-05-05 23:27 | 41.09044 | 38.77525 | 34029 ft | 455 kts | 275° |
| 2026-05-05 23:27 | 41.09790 | 38.69173 | 34029 ft | 455 kts | 275° |
| 2026-05-05 23:28 | 41.10511 | 38.60857 | 34029 ft | 455 kts | 275° |
| 2026-05-05 23:28 | 41.11214 | 38.52555 | 34029 ft | 455 kts | 275° |
| 2026-05-05 23:29 | 41.11906 | 38.44287 | 34029 ft | 454 kts | 275° |
| 2026-05-05 23:29 | 41.12592 | 38.36001 | 34032 ft | 454 kts | 275° |
| 2026-05-05 23:30 | 41.13277 | 38.27652 | 34035 ft | 454 kts | 275° |
| 2026-05-05 23:30 | 41.13959 | 38.19364 | 34040 ft | 455 kts | 275° |
| 2026-05-05 23:31 | 41.14638 | 38.11038 | 34036 ft | 455 kts | 275° |
| 2026-05-05 23:31 | 41.15309 | 38.02728 | 34034 ft | 455 kts | 275° |
| 2026-05-05 23:32 | 41.15978 | 37.94357 | 34037 ft | 455 kts | 275° |
| 2026-05-05 23:32 | 41.16642 | 37.86054 | 34035 ft | 454 kts | 276° |
| 2026-05-05 23:33 | 41.17355 | 37.77752 | 34036 ft | 453 kts | 276° |
| 2026-05-05 23:33 | 41.18060 | 37.69458 | 34030 ft | 453 kts | 276° |
| 2026-05-05 23:34 | 41.18725 | 37.61167 | 34037 ft | 453 kts | 274° |
| 2026-05-05 23:34 | 41.19207 | 37.52830 | 34033 ft | 452 kts | 275° |
| 2026-05-05 23:35 | 41.19821 | 37.44532 | 34036 ft | 452 kts | 275° |
| 2026-05-05 23:35 | 41.20438 | 37.36274 | 34032 ft | 451 kts | 275° |
| 2026-05-05 23:36 | 41.21045 | 37.28035 | 34030 ft | 451 kts | 275° |
| 2026-05-05 23:36 | 41.21657 | 37.19724 | 34030 ft | 451 kts | 275° |
| 2026-05-05 23:37 | 41.22302 | 37.11499 | 34031 ft | 452 kts | 275° |
| 2026-05-05 23:37 | 41.22946 | 37.03221 | 34034 ft | 451 kts | 275° |
| 2026-05-05 23:38 | 41.23576 | 36.94973 | 34034 ft | 451 kts | 276° |
| 2026-05-05 23:38 | 41.24208 | 36.86657 | 34032 ft | 451 kts | 276° |
| 2026-05-05 23:39 | 41.24826 | 36.78437 | 34038 ft | 451 kts | 275° |
| 2026-05-05 23:39 | 41.25438 | 36.70155 | 34039 ft | 450 kts | 275° |
| 2026-05-05 23:40 | 41.26022 | 36.61897 | 34041 ft | 448 kts | 274° |
| 2026-05-05 23:40 | 41.26123 | 36.53611 | 34046 ft | 448 kts | 268° |
| 2026-05-05 23:41 | 41.25529 | 36.45348 | 34048 ft | 449 kts | 263° |
| 2026-05-05 23:41 | 41.24633 | 36.37083 | 34042 ft | 451 kts | 263° |
| 2026-05-05 23:42 | 41.23732 | 36.28861 | 34041 ft | 452 kts | 262° |
| 2026-05-05 23:42 | 41.22823 | 36.20607 | 34040 ft | 452 kts | 262° |
| 2026-05-05 23:43 | 41.21919 | 36.12416 | 34037 ft | 452 kts | 262° |
| 2026-05-05 23:43 | 41.21000 | 36.04146 | 34031 ft | 452 kts | 262° |
| 2026-05-05 23:44 | 41.20079 | 35.95892 | 34027 ft | 452 kts | 263° |
| 2026-05-05 23:44 | 41.19156 | 35.87685 | 34018 ft | 452 kts | 262° |
| 2026-05-05 23:45 | 41.18222 | 35.79437 | 34006 ft | 453 kts | 262° |
| 2026-05-05 23:45 | 41.17281 | 35.71196 | 34002 ft | 453 kts | 263° |
| 2026-05-05 23:46 | 41.16340 | 35.62999 | 34005 ft | 452 kts | 263° |
| 2026-05-05 23:46 | 41.15391 | 35.54789 | 34007 ft | 451 kts | 263° |
| 2026-05-05 23:47 | 41.14441 | 35.46611 | 34014 ft | 451 kts | 263° |
| 2026-05-05 23:47 | 41.13482 | 35.38401 | 34014 ft | 451 kts | 263° |
| 2026-05-05 23:48 | 41.12510 | 35.30157 | 34011 ft | 451 kts | 262° |
| 2026-05-05 23:48 | 41.11543 | 35.21992 | 34007 ft | 451 kts | 263° |
| 2026-05-05 23:49 | 41.10565 | 35.13776 | 34008 ft | 452 kts | 263° |
| 2026-05-05 23:49 | 41.09578 | 35.05546 | 34011 ft | 452 kts | 263° |
| 2026-05-05 23:50 | 41.08588 | 34.97351 | 34023 ft | 451 kts | 263° |
| 2026-05-05 23:50 | 41.07591 | 34.89158 | 34037 ft | 450 kts | 263° |
| 2026-05-05 23:51 | 41.06593 | 34.80991 | 34035 ft | 450 kts | 263° |
| 2026-05-05 23:51 | 41.05587 | 34.72803 | 34040 ft | 450 kts | 263° |
| 2026-05-05 23:52 | 41.04581 | 34.64659 | 34022 ft | 450 kts | 263° |
| 2026-05-05 23:52 | 41.03564 | 34.56484 | 34017 ft | 450 kts | 263° |
| 2026-05-05 23:53 | 41.02548 | 34.48368 | 34006 ft | 450 kts | 263° |
| 2026-05-05 23:53 | 41.01516 | 34.40179 | 34019 ft | 450 kts | 264° |
| 2026-05-05 23:54 | 41.00492 | 34.32104 | 33994 ft | 449 kts | 263° |
| 2026-05-05 23:54 | 40.99455 | 34.23950 | 34014 ft | 449 kts | 263° |
| 2026-05-05 23:55 | 40.98415 | 34.15839 | 34011 ft | 449 kts | 263° |
| 2026-05-05 23:55 | 40.97368 | 34.07706 | 34021 ft | 449 kts | 263° |
| 2026-05-05 23:56 | 40.96312 | 33.99558 | 34036 ft | 450 kts | 263° |
| 2026-05-05 23:56 | 40.95252 | 33.91428 | 34028 ft | 450 kts | 264° |
| 2026-05-05 23:57 | 40.94183 | 33.83289 | 34019 ft | 449 kts | 264° |
| 2026-05-05 23:57 | 40.93113 | 33.75179 | 34017 ft | 448 kts | 264° |
| 2026-05-05 23:58 | 40.92048 | 33.67127 | 34002 ft | 448 kts | 264° |
| 2026-05-05 23:58 | 40.90966 | 33.59023 | 34003 ft | 449 kts | 264° |
| 2026-05-05 23:59 | 40.89880 | 33.50905 | 33994 ft | 449 kts | 264° |
| 2026-05-05 23:59 | 40.88786 | 33.42812 | 33990 ft | 449 kts | 264° |
| 2026-05-06 00:00 | 40.87682 | 33.34671 | 33998 ft | 449 kts | 264° |
| 2026-05-06 00:00 | 40.86580 | 33.26576 | 33992 ft | 449 kts | 264° |
| 2026-05-06 00:01 | 40.85469 | 33.18475 | 34003 ft | 448 kts | 264° |
| 2026-05-06 00:01 | 40.84357 | 33.10400 | 34014 ft | 448 kts | 264° |
| 2026-05-06 00:02 | 40.83241 | 33.02354 | 34028 ft | 448 kts | 265° |
| 2026-05-06 00:02 | 40.82115 | 32.94267 | 34006 ft | 448 kts | 264° |
| 2026-05-06 00:03 | 40.80987 | 32.86201 | 34015 ft | 449 kts | 265° |
| 2026-05-06 00:03 | 40.79851 | 32.78134 | 34007 ft | 448 kts | 264° |
| 2026-05-06 00:04 | 40.78708 | 32.70066 | 34008 ft | 447 kts | 265° |
| 2026-05-06 00:04 | 40.77564 | 32.62024 | 34010 ft | 447 kts | 265° |
| 2026-05-06 00:05 | 40.75836 | 32.49959 | 34006 ft | 448 kts | 265° |
| 2026-05-06 00:06 | 40.74672 | 32.41881 | 34006 ft | 448 kts | 265° |
| 2026-05-06 00:06 | 40.73505 | 32.33836 | 33996 ft | 447 kts | 264° |
| 2026-05-06 00:07 | 40.72633 | 32.25801 | 33993 ft | 443 kts | 272° |
| 2026-05-06 00:07 | 40.72728 | 32.17759 | 34005 ft | 437 kts | 281° |
| 2026-05-06 00:08 | 40.73801 | 32.09907 | 33995 ft | 431 kts | 290° |
| 2026-05-06 00:08 | 40.75589 | 32.02418 | 33779 ft | 429 kts | 293° |
| 2026-05-06 00:08 | 40.76530 | 31.98671 | 33452 ft | 428 kts | 293° |
| 2026-05-06 00:09 | 40.77454 | 31.94991 | 33005 ft | 425 kts | 293° |
| 2026-05-06 00:09 | 40.78377 | 31.91302 | 32449 ft | 424 kts | 293° |
| 2026-05-06 00:09 | 40.79298 | 31.87608 | 31917 ft | 421 kts | 293° |
| 2026-05-06 00:09 | 40.80197 | 31.83986 | 31484 ft | 416 kts | 293° |
| 2026-05-06 00:10 | 40.81090 | 31.80381 | 31075 ft | 412 kts | 292° |
| 2026-05-06 00:10 | 40.81977 | 31.76790 | 30659 ft | 407 kts | 292° |
| 2026-05-06 00:10 | 40.82850 | 31.73255 | 30202 ft | 403 kts | 292° |
| 2026-05-06 00:10 | 40.83701 | 31.69799 | 29766 ft | 399 kts | 292° |
| 2026-05-06 00:11 | 40.84555 | 31.66330 | 29322 ft | 395 kts | 292° |
| 2026-05-06 00:11 | 40.85396 | 31.62908 | 28888 ft | 391 kts | 292° |
| 2026-05-06 00:11 | 40.86224 | 31.59527 | 28459 ft | 388 kts | 292° |
| 2026-05-06 00:11 | 40.87052 | 31.56152 | 28029 ft | 384 kts | 292° |
| 2026-05-06 00:12 | 40.87863 | 31.52830 | 27605 ft | 381 kts | 292° |
| 2026-05-06 00:12 | 40.88673 | 31.49510 | 27180 ft | 378 kts | 292° |
| 2026-05-06 00:12 | 40.89483 | 31.46192 | 26757 ft | 375 kts | 292° |
| 2026-05-06 00:12 | 40.90269 | 31.42968 | 26351 ft | 373 kts | 292° |
| 2026-05-06 00:13 | 40.91044 | 31.39691 | 25938 ft | 370 kts | 291° |
| 2026-05-06 00:13 | 40.91770 | 31.36473 | 25537 ft | 368 kts | 290° |
| 2026-05-06 00:13 | 40.92497 | 31.33219 | 25130 ft | 365 kts | 289° |
| 2026-05-06 00:13 | 40.93209 | 31.30025 | 24729 ft | 363 kts | 289° |
| 2026-05-06 00:14 | 40.93921 | 31.26836 | 24325 ft | 361 kts | 289° |
| 2026-05-06 00:14 | 40.94629 | 31.23670 | 23927 ft | 358 kts | 289° |
| 2026-05-06 00:14 | 40.95332 | 31.20518 | 23527 ft | 356 kts | 289° |
| 2026-05-06 00:14 | 40.96028 | 31.17390 | 23125 ft | 354 kts | 289° |
| 2026-05-06 00:15 | 40.96722 | 31.14268 | 22725 ft | 352 kts | 289° |
| 2026-05-06 00:15 | 40.97399 | 31.11214 | 22335 ft | 350 kts | 289° |
| 2026-05-06 00:15 | 40.98087 | 31.08117 | 21942 ft | 348 kts | 289° |
| 2026-05-06 00:15 | 40.98770 | 31.05039 | 21546 ft | 347 kts | 289° |
| 2026-05-06 00:16 | 40.99444 | 31.01998 | 21159 ft | 344 kts | 289° |
| 2026-05-06 00:16 | 41.00106 | 30.98986 | 20886 ft | 339 kts | 289° |
| 2026-05-06 00:16 | 41.00738 | 30.95989 | 20589 ft | 339 kts | 288° |
| 2026-05-06 00:16 | 41.01356 | 30.93021 | 20191 ft | 338 kts | 288° |
| 2026-05-06 00:17 | 41.01994 | 30.90015 | 19870 ft | 345 kts | 289° |
| 2026-05-06 00:17 | 41.02684 | 30.86930 | 19621 ft | 350 kts | 289° |
| 2026-05-06 00:17 | 41.03351 | 30.83883 | 19364 ft | 350 kts | 286° |
| 2026-05-06 00:17 | 41.03625 | 30.80691 | 18968 ft | 351 kts | 274° |
| 2026-05-06 00:18 | 41.03612 | 30.77445 | 18498 ft | 350 kts | 272° |
| 2026-05-06 00:18 | 41.03566 | 30.74228 | 18031 ft | 349 kts | 272° |
| 2026-05-06 00:18 | 41.03539 | 30.71052 | 17596 ft | 347 kts | 273° |
| 2026-05-06 00:18 | 41.03532 | 30.67869 | 17178 ft | 344 kts | 273° |
| 2026-05-06 00:19 | 41.03539 | 30.64729 | 16758 ft | 342 kts | 274° |
| 2026-05-06 00:19 | 41.03553 | 30.61601 | 16318 ft | 341 kts | 274° |
| 2026-05-06 00:19 | 41.03573 | 30.58477 | 15876 ft | 339 kts | 274° |
| 2026-05-06 00:19 | 41.03596 | 30.55376 | 15437 ft | 338 kts | 274° |
| 2026-05-06 00:20 | 41.03618 | 30.52266 | 14991 ft | 336 kts | 274° |
| 2026-05-06 00:20 | 41.03640 | 30.49204 | 14550 ft | 335 kts | 274° |
| 2026-05-06 00:20 | 41.03662 | 30.46138 | 14103 ft | 334 kts | 274° |
| 2026-05-06 00:20 | 41.03684 | 30.43077 | 13659 ft | 332 kts | 274° |
| 2026-05-06 00:21 | 41.03706 | 30.40011 | 13211 ft | 331 kts | 274° |
| 2026-05-06 00:21 | 41.03725 | 30.37003 | 12769 ft | 330 kts | 274° |
| 2026-05-06 00:21 | 41.03744 | 30.33978 | 12320 ft | 328 kts | 273° |
| 2026-05-06 00:21 | 41.03764 | 30.30946 | 11880 ft | 327 kts | 273° |
| 2026-05-06 00:22 | 41.03781 | 30.27951 | 11431 ft | 326 kts | 273° |
| 2026-05-06 00:22 | 41.03796 | 30.24981 | 10967 ft | 320 kts | 274° |
| 2026-05-06 00:22 | 41.03811 | 30.22101 | 10515 ft | 311 kts | 273° |
| 2026-05-06 00:22 | 41.03826 | 30.19285 | 10063 ft | 302 kts | 273° |
| 2026-05-06 00:23 | 41.03839 | 30.16553 | 9610 ft | 295 kts | 273° |
| 2026-05-06 00:23 | 41.03852 | 30.13868 | 9166 ft | 289 kts | 273° |
| 2026-05-06 00:23 | 41.03866 | 30.11210 | 8709 ft | 289 kts | 273° |
| 2026-05-06 00:23 | 41.03879 | 30.08562 | 8260 ft | 290 kts | 273° |
| 2026-05-06 00:24 | 41.03891 | 30.05901 | 7846 ft | 284 kts | 272° |
| 2026-05-06 00:24 | 41.03900 | 30.03333 | 7414 ft | 274 kts | 272° |
| 2026-05-06 00:24 | 41.03907 | 30.00898 | 7067 ft | 261 kts | 272° |
| 2026-05-06 00:24 | 41.03915 | 29.98521 | 6701 ft | 250 kts | 272° |
| 2026-05-06 00:25 | 41.03922 | 29.96299 | 6384 ft | 238 kts | 272° |
| 2026-05-06 00:25 | 41.03928 | 29.94155 | 6085 ft | 229 kts | 272° |
| 2026-05-06 00:25 | 41.03934 | 29.92072 | 6099 ft | 225 kts | 272° |
| 2026-05-06 00:25 | 41.03940 | 29.89997 | 6117 ft | 224 kts | 272° |
| 2026-05-06 00:26 | 41.03944 | 29.87990 | 6064 ft | 217 kts | 272° |
| 2026-05-06 00:26 | 41.03949 | 29.86003 | 6059 ft | 216 kts | 272° |
| 2026-05-06 00:26 | 41.03954 | 29.84014 | 6061 ft | 216 kts | 272° |
| 2026-05-06 00:26 | 41.03957 | 29.82011 | 5954 ft | 216 kts | 272° |
| 2026-05-06 00:27 | 41.03961 | 29.80035 | 5731 ft | 214 kts | 272° |
| 2026-05-06 00:27 | 41.03964 | 29.78062 | 5518 ft | 212 kts | 272° |
| 2026-05-06 00:27 | 41.03966 | 29.76119 | 5340 ft | 212 kts | 272° |
| 2026-05-06 00:27 | 41.03969 | 29.74186 | 5165 ft | 211 kts | 272° |
| 2026-05-06 00:28 | 41.03947 | 29.72248 | 5067 ft | 211 kts | 269° |
| 2026-05-06 00:28 | 41.03807 | 29.70342 | 5049 ft | 203 kts | 264° |
| 2026-05-06 00:28 | 41.03469 | 29.68537 | 5048 ft | 203 kts | 254° |
| 2026-05-06 00:28 | 41.02962 | 29.66784 | 5053 ft | 203 kts | 250° |
| 2026-05-06 00:29 | 41.02416 | 29.65075 | 5054 ft | 204 kts | 249° |
| 2026-05-06 00:29 | 41.01834 | 29.63359 | 5051 ft | 202 kts | 248° |
| 2026-05-06 00:29 | 41.01247 | 29.61700 | 4822 ft | 198 kts | 246° |
| 2026-05-06 00:29 | 41.00641 | 29.60038 | 4439 ft | 199 kts | 246° |
| 2026-05-06 00:30 | 41.00037 | 29.58401 | 4067 ft | 198 kts | 246° |
| 2026-05-06 00:30 | 40.99439 | 29.56801 | 3801 ft | 192 kts | 246° |
| 2026-05-06 00:30 | 40.98859 | 29.55251 | 3571 ft | 183 kts | 246° |
| 2026-05-06 00:30 | 40.98298 | 29.53748 | 3566 ft | 183 kts | 246° |
| 2026-05-06 00:31 | 40.97733 | 29.52231 | 3560 ft | 183 kts | 247° |
| 2026-05-06 00:31 | 40.97172 | 29.50727 | 3623 ft | 184 kts | 247° |
| 2026-05-06 00:31 | 40.96606 | 29.49204 | 3531 ft | 180 kts | 246° |
| 2026-05-06 00:31 | 40.96069 | 29.47759 | 3275 ft | 167 kts | 247° |
| 2026-05-06 00:32 | 40.95576 | 29.46433 | 3003 ft | 159 kts | 247° |
| 2026-05-06 00:32 | 40.95093 | 29.45126 | 2765 ft | 158 kts | 246° |
| 2026-05-06 00:32 | 40.94614 | 29.43828 | 2528 ft | 158 kts | 246° |
| 2026-05-06 00:32 | 40.94133 | 29.42526 | 2275 ft | 158 kts | 246° |
| 2026-05-06 00:33 | 40.93651 | 29.41220 | 2034 ft | 158 kts | 246° |
| 2026-05-06 00:33 | 40.93177 | 29.39937 | 1791 ft | 157 kts | 246° |
| 2026-05-06 00:33 | 40.92693 | 29.38625 | 1531 ft | 155 kts | 245° |
| 2026-05-06 00:33 | 40.92234 | 29.37374 | 1246 ft | 152 kts | 245° |
| 2026-05-06 00:34 | 40.91771 | 29.36121 | 1031 ft | 152 kts | 245° |
| 2026-05-06 00:34 | 40.91308 | 29.34858 | 793 ft | 151 kts | 245° |
| 2026-05-06 00:34 | 40.90845 | 29.33604 | 572 ft | 152 kts | 244° |
| 2026-05-06 00:34 | 40.90388 | 29.32369 | 347 ft | 152 kts | 244° |
| 2026-05-06 00:35 | 40.89950 | 29.31181 | 370 ft | 141 kts | 244° |
| 2026-05-06 00:35 | 40.89480 | 29.29950 | 810 ft | 156 kts | 243° |
| 2026-05-06 00:35 | 40.88997 | 29.28680 | 1435 ft | 159 kts | 245° |
| 2026-05-06 00:35 | 40.88517 | 29.27378 | 2115 ft | 159 kts | 246° |
| 2026-05-06 00:36 | 40.88030 | 29.26047 | 2498 ft | 165 kts | 248° |
| 2026-05-06 00:36 | 40.87808 | 29.24527 | 2628 ft | 181 kts | 288° |
| 2026-05-06 00:36 | 40.88555 | 29.23138 | 2804 ft | 203 kts | 331° |
| 2026-05-06 00:36 | 40.89968 | 29.22847 | 3373 ft | 218 kts | 14° |
| 2026-05-06 00:37 | 40.91248 | 29.23941 | 3888 ft | 230 kts | 52° |
| 2026-05-06 00:37 | 40.91853 | 29.25939 | 4074 ft | 239 kts | 76° |
| 2026-05-06 00:37 | 40.92178 | 29.28075 | 4072 ft | 240 kts | 76° |
| 2026-05-06 00:37 | 40.92570 | 29.30251 | 4069 ft | 240 kts | 73° |
| 2026-05-06 00:38 | 40.93034 | 29.32352 | 4069 ft | 240 kts | 70° |
| 2026-05-06 00:38 | 40.93564 | 29.34459 | 4065 ft | 239 kts | 69° |
| 2026-05-06 00:38 | 40.94124 | 29.36526 | 4065 ft | 239 kts | 68° |
| 2026-05-06 00:38 | 40.94705 | 29.38593 | 4062 ft | 239 kts | 67° |
| 2026-05-06 00:39 | 40.95295 | 29.40647 | 4059 ft | 239 kts | 67° |
| 2026-05-06 00:39 | 40.95889 | 29.42693 | 4057 ft | 240 kts | 66° |
| 2026-05-06 00:39 | 40.96496 | 29.44770 | 4057 ft | 240 kts | 66° |
| 2026-05-06 00:39 | 40.97098 | 29.46833 | 4056 ft | 240 kts | 66° |
| 2026-05-06 00:40 | 40.97695 | 29.48875 | 4056 ft | 240 kts | 66° |
| 2026-05-06 00:40 | 40.98288 | 29.50901 | 4045 ft | 231 kts | 66° |
| 2026-05-06 00:40 | 40.98865 | 29.52870 | 4053 ft | 231 kts | 66° |
| 2026-05-06 00:40 | 40.99446 | 29.54856 | 4051 ft | 231 kts | 66° |
| 2026-05-06 00:41 | 41.00023 | 29.56830 | 4049 ft | 231 kts | 66° |
| 2026-05-06 00:41 | 41.00592 | 29.58780 | 4128 ft | 219 kts | 66° |
| 2026-05-06 00:41 | 41.01133 | 29.60637 | 4097 ft | 211 kts | 66° |
| 2026-05-06 00:41 | 41.01660 | 29.62436 | 4069 ft | 210 kts | 66° |
| 2026-05-06 00:42 | 41.02188 | 29.64244 | 4058 ft | 210 kts | 66° |
| 2026-05-06 00:42 | 41.02714 | 29.66045 | 4054 ft | 210 kts | 67° |
| 2026-05-06 00:42 | 41.03468 | 29.67686 | 4020 ft | 206 kts | 39° |
| 2026-05-06 00:42 | 41.04761 | 29.68438 | 4043 ft | 203 kts | 7° |
| 2026-05-06 00:43 | 41.06144 | 29.68254 | 4042 ft | 202 kts | 340° |
| 2026-05-06 00:43 | 41.07307 | 29.67227 | 4038 ft | 202 kts | 313° |
| 2026-05-06 00:43 | 41.07966 | 29.65597 | 4038 ft | 204 kts | 286° |
| 2026-05-06 00:43 | 41.07958 | 29.63726 | 4038 ft | 208 kts | 258° |
| 2026-05-06 00:44 | 41.07225 | 29.62079 | 4028 ft | 210 kts | 225° |
| 2026-05-06 00:44 | 41.05970 | 29.61267 | 4015 ft | 196 kts | 196° |
| 2026-05-06 00:44 | 41.04611 | 29.60889 | 4047 ft | 203 kts | 192° |
| 2026-05-06 00:44 | 41.03199 | 29.60546 | 4049 ft | 204 kts | 192° |
| 2026-05-06 00:45 | 41.01808 | 29.60203 | 4048 ft | 204 kts | 192° |
| 2026-05-06 00:45 | 41.00518 | 29.59478 | 4024 ft | 200 kts | 223° |
| 2026-05-06 00:45 | 40.99696 | 29.58009 | 4063 ft | 199 kts | 244° |
| 2026-05-06 00:45 | 40.99123 | 29.56350 | 4055 ft | 198 kts | 250° |
| 2026-05-06 00:46 | 40.98591 | 29.54686 | 4047 ft | 198 kts | 249° |
| 2026-05-06 00:46 | 40.98030 | 29.53027 | 4045 ft | 199 kts | 248° |
| 2026-05-06 00:46 | 40.97434 | 29.51363 | 3935 ft | 196 kts | 247° |
| 2026-05-06 00:46 | 40.96851 | 29.49791 | 3670 ft | 190 kts | 246° |
| 2026-05-06 00:47 | 40.96273 | 29.48251 | 3403 ft | 182 kts | 246° |
| 2026-05-06 00:47 | 40.95732 | 29.46808 | 3101 ft | 170 kts | 246° |
| 2026-05-06 00:47 | 40.95223 | 29.45446 | 2815 ft | 159 kts | 247° |
| 2026-05-06 00:47 | 40.94742 | 29.44152 | 2569 ft | 156 kts | 246° |
| 2026-05-06 00:48 | 40.94268 | 29.42874 | 2340 ft | 156 kts | 246° |
| 2026-05-06 00:48 | 40.93786 | 29.41575 | 2104 ft | 156 kts | 246° |
| 2026-05-06 00:48 | 40.93315 | 29.40303 | 1867 ft | 155 kts | 246° |
| 2026-05-06 00:48 | 40.92842 | 29.39022 | 1620 ft | 155 kts | 246° |
| 2026-05-06 00:49 | 40.92368 | 29.37737 | 1359 ft | 154 kts | 246° |
| 2026-05-06 00:49 | 40.91911 | 29.36488 | 1069 ft | 149 kts | 245° |
| 2026-05-06 00:49 | 40.91461 | 29.35256 | 866 ft | 150 kts | 245° |
| 2026-05-06 00:49 | 40.90993 | 29.34009 | 640 ft | 151 kts | 244° |
| 2026-05-06 00:50 | 40.90541 | 29.32788 | 402 ft | 150 kts | 244° |
| 2026-05-06 00:50 | 40.90105 | 29.31593 | 321 ft | 128 kts | 243° |
| 2026-05-06 00:50 | 40.89786 | 29.30737 | 321 ft | 78 kts | 244° |
| 2026-05-06 00:50 | 40.89641 | 29.30311 | 321 ft | 31 kts | 255° |
| 2026-05-06 00:51 | 40.89633 | 29.30052 | 322 ft | 25 kts | 274° |
| 2026-05-06 00:51 | 40.89690 | 29.29930 | 322 ft | 17 kts | 21° |
| 2026-05-06 00:51 | 40.89750 | 29.30066 | 321 ft | 17 kts | 63° |
| 2026-05-06 00:51 | 40.89809 | 29.30225 | 321 ft | 20 kts | 64° |
| 2026-05-06 00:52 | 40.89870 | 29.30391 | 321 ft | 19 kts | 64° |
| 2026-05-06 00:52 | 40.89932 | 29.30560 | 321 ft | 21 kts | 64° |
| 2026-05-06 00:52 | 40.89996 | 29.30737 | 321 ft | 21 kts | 64° |
| 2026-05-06 00:52 | 40.90059 | 29.30898 | 321 ft | 18 kts | 47° |
| 2026-05-06 00:53 | 40.90171 | 29.30902 | 321 ft | 17 kts | 331° |
| 2026-05-06 00:53 | 40.90262 | 29.30932 | 321 ft | 17 kts | 62° |
| 2026-05-06 00:53 | 40.90325 | 29.31102 | 321 ft | 21 kts | 64° |
| 2026-05-06 00:53 | 40.90389 | 29.31279 | 321 ft | 20 kts | 63° |
| 2026-05-06 00:54 | 40.90444 | 29.31424 | 321 ft | 17 kts | 64° |
| 2026-05-06 00:54 | 40.90479 | 29.31514 | 321 ft | 5 kts | 37° |
| 2026-05-06 00:54 | 40.90519 | 29.31500 | 321 ft | 6 kts | 338° |
| 2026-05-06 00:54 | 40.90554 | 29.31478 | 321 ft | 2 kts | 333° |
| 2026-05-06 00:55 | 40.90564 | 29.31471 | 321 ft | 0 kts | 333° |